Time;durP1;ratioP1;P1;durP2;ratioP2;P2;SDS_P1;SDS_P2;PMS_P1;PMS_P2;Temp;Humidity;BMP_temperature;BMP_pressure;BME280_temperature;BME280_humidity;BME280_pressure;Samples;Min_cycle;Max_cycle;Signal;HPM_P1;HPM_P2
2023/08/01 00:00:33;;;;;;;9.98;5.55;;;;;;;17.55;100.00;95886.44;5002589;28;20709;-70
2023/08/01 00:02:59;;;;;;;11.73;5.82;;;;;;;17.61;100.00;95883.94;5002115;28;20061;-71
2023/08/01 00:05:24;;;;;;;16.05;6.80;;;;;;;17.67;100.00;95868.38;4999095;28;20414;-69
2023/08/01 00:07:50;;;;;;;10.60;5.72;;;;;;;17.53;100.00;95864.72;5003457;28;20046;-69
2023/08/01 00:10:16;;;;;;;10.95;5.70;;;;;;;17.60;100.00;95849.94;4997968;28;20049;-68
2023/08/01 00:12:42;;;;;;;9.75;5.30;;;;;;;17.45;100.00;95854.25;5002402;28;20096;-70
2023/08/01 00:15:08;;;;;;;11.77;6.35;;;;;;;17.39;100.00;95845.69;4996426;28;20045;-70
2023/08/01 00:17:34;;;;;;;11.15;5.72;;;;;;;17.44;100.00;95842.41;5002794;28;20052;-69
2023/08/01 00:20:04;;;;;;;12.60;5.30;;;;;;;17.49;100.00;95835.59;5002353;28;20414;-69
2023/08/01 00:22:29;;;;;;;11.93;5.95;;;;;;;17.37;100.00;95826.75;5002217;28;20104;-71
2023/08/01 00:24:55;;;;;;;10.38;5.45;;;;;;;17.25;100.00;95813.63;5001637;28;20037;-70
2023/08/01 00:27:20;;;;;;;13.50;5.53;;;;;;;17.00;100.00;95792.09;4997477;28;23837;-69
2023/08/01 00:29:46;;;;;;;13.32;5.35;;;;;;;16.98;100.00;95800.03;5007189;28;20025;-69
2023/08/01 00:32:12;;;;;;;9.50;5.45;;;;;;;17.06;100.00;95804.19;5014900;28;20041;-70
2023/08/01 00:34:37;;;;;;;12.30;5.80;;;;;;;16.98;100.00;95786.22;5017176;28;20065;-70
2023/08/01 00:37:03;;;;;;;7.25;5.00;;;;;;;17.17;100.00;95782.56;5004189;28;20384;-69
2023/08/01 00:39:28;;;;;;;10.82;4.82;;;;;;;17.24;100.00;95780.84;5000372;28;20069;-69
2023/08/01 00:41:54;;;;;;;12.00;5.35;;;;;;;17.35;100.00;95779.34;5002162;28;20042;-68
2023/08/01 00:44:19;;;;;;;11.70;5.18;;;;;;;17.49;100.00;95774.69;4996461;28;20065;-69
2023/08/01 00:46:45;;;;;;;13.25;5.80;;;;;;;17.77;100.00;95779.47;5003394;28;20042;-70
2023/08/01 00:49:11;;;;;;;10.52;5.55;;;;;;;17.95;100.00;95770.72;4999102;28;20154;-68
2023/08/01 00:51:36;;;;;;;12.82;5.60;;;;;;;18.00;100.00;95765.84;5002098;28;20173;-68
2023/08/01 00:54:02;;;;;;;8.60;4.75;;;;;;;18.04;100.00;95764.53;5019055;28;20050;-69
2023/08/01 00:56:27;;;;;;;8.90;5.63;;;;;;;18.08;100.00;95769.97;5019855;28;20057;-70
2023/08/01 00:58:53;;;;;;;10.63;5.20;;;;;;;18.12;100.00;95767.88;5005156;28;20050;-70
2023/08/01 01:01:18;;;;;;;10.10;5.00;;;;;;;18.11;100.00;95764.34;4991378;28;20061;-69
2023/08/01 01:03:44;;;;;;;8.93;4.75;;;;;;;18.09;100.00;95755.66;5000740;28;20037;-70
2023/08/01 01:06:33;;;;;;;6.22;4.55;;;;;;;17.88;100.00;95745.97;4997641;28;20078;-70
2023/08/01 01:08:58;;;;;;;9.38;5.10;;;;;;;17.73;100.00;95747.53;5002194;28;20132;-69
2023/08/01 01:11:23;;;;;;;9.27;4.65;;;;;;;17.66;100.00;95733.88;4994873;28;20989;-69
2023/08/01 01:13:52;;;;;;;8.15;4.95;;;;;;;17.71;100.00;95728.59;5001578;28;20495;-69
2023/08/01 01:16:18;;;;;;;10.80;5.40;;;;;;;17.93;100.00;95720.53;4994456;28;20046;-70
2023/08/01 01:18:43;;;;;;;10.57;5.20;;;;;;;17.99;100.00;95714.41;5001751;28;20149;-70
2023/08/01 01:21:09;;;;;;;7.57;4.75;;;;;;;17.95;100.00;95708.97;4996629;28;20065;-68
2023/08/01 01:23:35;;;;;;;7.78;4.93;;;;;;;17.99;100.00;95706.09;5001218;28;20041;-71
2023/08/01 01:26:02;;;;;;;8.88;4.65;;;;;;;17.97;100.00;95703.78;5002286;28;20514;-68
2023/08/01 01:28:28;;;;;;;8.63;4.70;;;;;;;17.67;100.00;95699.47;4994784;28;20591;-70
2023/08/01 01:30:55;;;;;;;9.27;4.45;;;;;;;17.52;100.00;95690.75;5001899;28;20209;-70
2023/08/01 01:33:20;;;;;;;11.32;5.20;;;;;;;17.53;100.00;95684.78;4997355;28;20137;-69
2023/08/01 01:35:47;;;;;;;9.27;5.25;;;;;;;17.21;100.00;95685.63;5002167;28;20427;-69
2023/08/01 01:38:13;;;;;;;8.70;4.90;;;;;;;17.33;100.00;95679.38;4995545;28;20630;-69
2023/08/01 01:40:38;;;;;;;7.05;4.45;;;;;;;17.45;100.00;95674.34;5001114;28;20149;-69
2023/08/01 01:43:03;;;;;;;9.38;4.78;;;;;;;17.58;100.00;95681.47;4998544;28;20049;-70
2023/08/01 01:45:29;;;;;;;8.05;5.00;;;;;;;17.46;100.00;95682.19;5000214;28;20042;-69
2023/08/01 01:47:54;;;;;;;8.88;5.20;;;;;;;17.44;100.00;95678.31;5001055;28;20458;-69
2023/08/01 01:50:19;;;;;;;7.85;4.28;;;;;;;17.57;100.00;95671.63;4996177;28;20102;-70
2023/08/01 01:52:45;;;;;;;7.07;4.45;;;;;;;17.67;100.00;95680.06;5011149;28;20479;-70
2023/08/01 01:55:11;;;;;;;10.15;4.78;;;;;;;17.49;100.00;95670.25;4996497;28;20046;-69
2023/08/01 01:57:36;;;;;;;10.52;5.22;;;;;;;17.22;100.00;95678.91;5002270;28;20042;-70
2023/08/01 02:00:04;;;;;;;9.75;4.85;;;;;;;16.85;100.00;95671.94;4998485;28;20057;-70
2023/08/01 02:02:29;;;;;;;8.68;5.13;;;;;;;16.84;100.00;95678.69;5000643;28;20042;-68
2023/08/01 02:04:54;;;;;;;9.13;5.13;;;;;;;16.84;100.00;95670.41;5001614;28;20042;-69
2023/08/01 02:07:20;;;;;;;7.63;4.78;;;;;;;16.88;100.00;95665.53;4997833;28;20133;-68
2023/08/01 02:09:46;;;;;;;11.20;5.70;;;;;;;16.90;100.00;95663.88;5001512;28;20678;-69
2023/08/01 02:12:14;;;;;;;10.68;5.10;;;;;;;16.95;100.00;95666.13;4996347;28;20525;-69
2023/08/01 02:14:40;;;;;;;10.48;5.18;;;;;;;17.06;100.00;95682.47;5000081;28;20502;-69
2023/08/01 02:17:05;;;;;;;10.38;5.40;;;;;;;17.22;100.00;95673.38;4990464;28;20033;-70
2023/08/01 02:19:32;;;;;;;9.65;4.88;;;;;;;17.46;100.00;95662.81;5001547;28;20069;-69
2023/08/01 02:21:58;;;;;;;6.90;4.18;;;;;;;17.60;100.00;95667.19;5000769;28;20034;-70
2023/08/01 02:24:23;;;;;;;14.43;4.70;;;;;;;17.67;100.00;95667.00;4996785;28;20534;-68
2023/08/01 02:26:49;;;;;;;8.50;4.47;;;;;;;17.74;100.00;95669.56;4998699;28;20050;-70
2023/08/01 02:29:15;;;;;;;8.93;4.60;;;;;;;17.85;100.00;95674.03;4996685;28;20142;-70
2023/08/01 02:31:40;;;;;;;12.65;4.85;;;;;;;17.92;100.00;95666.31;5000780;28;20163;-69
2023/08/01 02:34:06;;;;;;;5.75;4.22;;;;;;;17.91;100.00;95667.53;4993891;28;20034;-70
2023/08/01 02:36:31;;;;;;;10.45;5.13;;;;;;;17.84;100.00;95669.69;5000571;28;20602;-69
2023/08/01 02:38:56;;;;;;;9.07;4.75;;;;;;;17.92;100.00;95671.84;5001135;28;20038;-70
2023/08/01 02:41:22;;;;;;;9.25;5.00;;;;;;;17.99;100.00;95670.09;4996455;28;20092;-69
2023/08/01 02:43:47;;;;;;;12.15;5.00;;;;;;;18.00;100.00;95672.41;5001292;28;20050;-69
2023/08/01 02:46:12;;;;;;;12.77;5.05;;;;;;;18.10;100.00;95659.47;4996374;28;20418;-69
2023/08/01 02:48:38;;;;;;;7.28;4.70;;;;;;;18.16;100.00;95690.97;5001130;28;20469;-69
2023/08/01 02:51:03;;;;;;;12.60;4.82;;;;;;;18.12;100.00;95693.84;4998996;28;20041;-70
2023/08/01 02:53:28;;;;;;;10.40;5.15;;;;;;;18.11;100.00;95661.81;4999306;28;20042;-69
2023/08/01 02:55:54;;;;;;;9.75;4.85;;;;;;;18.11;100.00;95677.66;5002513;28;20042;-69
2023/08/01 02:58:19;;;;;;;9.77;4.78;;;;;;;18.02;100.00;95666.44;5002372;28;20077;-68
2023/08/01 03:00:45;;;;;;;8.60;4.53;;;;;;;17.95;100.00;95679.28;5001041;28;20046;-69
2023/08/01 03:03:10;;;;;;;8.23;4.72;;;;;;;17.93;100.00;95686.47;4997102;28;20133;-69
2023/08/01 03:05:37;;;;;;;14.55;4.72;;;;;;;17.94;100.00;95696.34;5002763;28;20041;-68
2023/08/01 03:08:03;;;;;;;8.40;4.80;;;;;;;17.88;100.00;95696.13;5003690;28;20770;-69
2023/08/01 03:10:29;;;;;;;8.38;4.30;;;;;;;17.90;100.00;95668.75;5004378;28;20602;-68
2023/08/01 03:12:54;;;;;;;13.35;4.95;;;;;;;17.89;100.00;95691.34;5013289;28;20033;-69
2023/08/01 03:15:19;;;;;;;8.52;4.72;;;;;;;17.89;100.00;95697.66;5013513;28;20022;-71
2023/08/01 03:17:45;;;;;;;8.75;4.63;;;;;;;17.95;100.00;95692.34;5016609;28;20053;-70
2023/08/01 03:20:11;;;;;;;7.25;4.50;;;;;;;17.87;100.00;95685.47;5007970;28;20105;-70
2023/08/01 03:22:39;;;;;;;9.23;4.35;;;;;;;17.75;100.00;95686.94;5008409;28;20048;-70
2023/08/01 03:25:07;;;;;;;9.90;4.38;;;;;;;17.75;100.00;95684.97;5003234;28;20184;-71
2023/08/01 03:27:35;;;;;;;10.63;4.85;;;;;;;17.67;100.00;95694.69;5000402;28;20054;-69
2023/08/01 03:30:01;;;;;;;10.45;5.03;;;;;;;17.65;100.00;95697.13;4985502;28;20049;-69
2023/08/01 03:32:27;;;;;;;7.13;4.07;;;;;;;17.59;100.00;95690.56;4977952;28;20046;-70
2023/08/01 03:34:52;;;;;;;10.73;4.45;;;;;;;17.68;100.00;95701.00;4985142;28;20053;-70
2023/08/01 03:37:17;;;;;;;6.75;4.20;;;;;;;17.70;100.00;95696.59;4997391;28;20608;-70
2023/08/01 03:39:43;;;;;;;6.88;4.55;;;;;;;17.80;100.00;95703.03;5012583;28;20038;-71
2023/08/01 03:42:08;;;;;;;10.10;4.15;;;;;;;17.83;100.00;95701.41;4997282;28;20053;-69
2023/08/01 03:44:34;;;;;;;8.80;3.97;;;;;;;17.83;100.00;95707.72;4997704;28;20088;-70
2023/08/01 03:46:59;;;;;;;7.85;4.10;;;;;;;17.92;100.00;95701.56;4986006;28;20042;-70
2023/08/01 03:49:25;;;;;;;6.13;3.92;;;;;;;17.86;100.00;95690.25;4980181;28;20042;-70
2023/08/01 03:51:50;;;;;;;8.30;4.90;;;;;;;17.91;100.00;95702.75;4985252;28;20125;-68
2023/08/01 03:54:15;;;;;;;8.27;4.18;;;;;;;17.88;100.00;95701.66;4994520;28;20104;-71
2023/08/01 03:56:43;;;;;;;8.55;4.68;;;;;;;17.94;100.00;95705.44;4984227;28;20355;-68
2023/08/01 03:59:13;;;;;;;7.50;4.28;;;;;;;18.02;100.00;95696.91;5026513;28;20049;-70
2023/08/01 04:01:38;;;;;;;6.10;4.03;;;;;;;18.12;100.00;95704.91;5005409;28;20518;-70
2023/08/01 04:04:04;;;;;;;10.90;4.45;;;;;;;18.12;100.00;95702.16;5001025;28;20042;-68
2023/08/01 04:06:29;;;;;;;8.55;4.18;;;;;;;18.18;100.00;95719.00;5003573;28;20050;-69
2023/08/01 04:08:56;;;;;;;11.25;4.80;;;;;;;18.19;100.00;95720.56;5003914;28;20041;-70
2023/08/01 04:11:22;;;;;;;10.98;4.47;;;;;;;18.26;100.00;95716.81;4999647;28;20635;-69
2023/08/01 04:13:49;;;;;;;8.10;4.50;;;;;;;18.29;100.00;95713.94;5002163;28;20491;-70
2023/08/01 04:16:14;;;;;;;5.88;4.07;;;;;;;18.39;100.00;95722.38;4997122;28;20033;-69
2023/08/01 04:18:40;;;;;;;8.75;3.70;;;;;;;18.45;100.00;95718.59;5003598;28;20125;-69
2023/08/01 04:21:06;;;;;;;6.90;3.72;;;;;;;18.56;100.00;95723.81;5011013;28;20045;-70
2023/08/01 04:23:31;;;;;;;7.45;3.95;;;;;;;18.57;100.00;95725.38;5002497;28;20057;-69
2023/08/01 04:25:58;;;;;;;11.90;4.50;;;;;;;18.57;100.00;95725.38;5000947;28;20060;-72
2023/08/01 04:28:23;;;;;;;8.02;4.38;;;;;;;18.54;100.00;95734.56;5011053;28;20190;-70
2023/08/01 04:30:50;;;;;;;10.65;3.92;;;;;;;18.56;100.00;95734.91;5002950;28;20038;-69
2023/08/01 04:33:15;;;;;;;11.73;5.85;;;;;;;18.64;100.00;95733.47;4998758;28;20040;-69
2023/08/01 04:35:40;;;;;;;10.75;4.50;;;;;;;18.63;100.00;95731.13;5002705;28;20495;-68
2023/08/01 04:38:06;;;;;;;7.05;3.88;;;;;;;18.73;100.00;95736.34;4998297;28;20403;-70
2023/08/01 04:40:31;;;;;;;8.18;4.00;;;;;;;18.74;100.00;95731.56;5002974;28;20108;-70
2023/08/01 04:42:56;;;;;;;10.95;4.35;;;;;;;18.79;100.00;95730.25;5003791;28;20132;-70
2023/08/01 04:45:22;;;;;;;8.05;3.85;;;;;;;18.80;100.00;95735.38;4998655;28;20536;-70
2023/08/01 04:47:47;;;;;;;9.00;4.25;;;;;;;18.79;100.00;95730.25;5001445;28;20046;-69
2023/08/01 04:50:13;;;;;;;7.35;4.20;;;;;;;18.80;100.00;95738.13;4979517;28;20038;-69
2023/08/01 04:52:38;;;;;;;7.03;3.80;;;;;;;18.73;100.00;95736.34;5002300;28;20045;-69
2023/08/01 04:55:05;;;;;;;10.73;4.38;;;;;;;18.75;100.00;95727.59;4999604;28;20125;-71
2023/08/01 04:57:30;;;;;;;8.02;3.83;;;;;;;18.77;100.00;95725.16;5001279;28;20518;-69
2023/08/01 04:59:55;;;;;;;9.45;3.97;;;;;;;18.77;100.00;95732.69;5002103;28;20049;-69
2023/08/01 05:02:21;;;;;;;9.30;4.25;;;;;;;18.80;100.00;95735.38;4996930;28;20910;-70
2023/08/01 05:04:46;;;;;;;7.93;3.80;;;;;;;18.87;100.00;95737.16;5000560;28;20038;-69
2023/08/01 05:07:11;;;;;;;9.50;3.90;;;;;;;18.90;100.00;95741.81;4997065;28;20045;-69
2023/08/01 05:09:37;;;;;;;8.45;3.75;;;;;;;18.87;100.00;95731.59;5001898;28;20212;-70
2023/08/01 05:12:02;;;;;;;8.23;4.07;;;;;;;18.87;100.00;95735.16;5001922;28;20045;-69
2023/08/01 05:14:28;;;;;;;9.57;4.07;;;;;;;18.94;100.00;95741.69;5000719;28;20042;-73
2023/08/01 05:16:53;;;;;;;7.28;3.53;;;;;;;18.87;100.00;95720.50;4999207;28;20077;-69
2023/08/01 05:19:19;;;;;;;6.78;3.60;;;;;;;18.90;96.43;95742.56;4996192;28;20038;-69
2023/08/01 05:21:44;;;;;;;7.60;3.40;;;;;;;18.90;95.85;95744.59;5001331;28;20517;-71
2023/08/01 05:24:09;;;;;;;7.18;3.92;;;;;;;18.86;96.78;95736.38;4997351;28;20573;-69
2023/08/01 05:26:36;;;;;;;7.47;3.50;;;;;;;18.87;96.60;95732.38;5000893;28;20189;-70
2023/08/01 05:29:01;;;;;;;10.05;4.90;;;;;;;18.92;99.40;95742.13;5000751;28;20103;-71
2023/08/01 05:31:26;;;;;;;8.55;3.67;;;;;;;18.81;100.00;95725.03;4996630;28;20126;-71
2023/08/01 05:33:52;;;;;;;6.93;3.60;;;;;;;18.59;100.00;95734.03;5010330;28;20113;-73
2023/08/01 05:36:17;;;;;;;6.47;3.53;;;;;;;18.46;100.00;95724.94;5007281;28;20060;-71
2023/08/01 05:38:43;;;;;;;10.15;3.42;;;;;;;18.38;100.00;95720.81;5006258;28;20049;-70
2023/08/01 05:41:08;;;;;;;6.75;3.53;;;;;;;18.23;100.00;95723.22;4996344;28;20048;-70
2023/08/01 05:43:34;;;;;;;8.35;3.58;;;;;;;18.05;100.00;95716.22;5002784;28;20376;-68
2023/08/01 05:45:59;;;;;;;6.80;3.85;;;;;;;17.99;100.00;95711.63;5002076;28;20033;-71
2023/08/01 05:48:24;;;;;;;8.18;4.82;;;;;;;18.00;100.00;95715.97;4996496;28;20382;-70
2023/08/01 05:50:50;;;;;;;5.40;3.60;;;;;;;18.07;100.00;95718.53;4999756;28;20092;-71
2023/08/01 05:53:15;;;;;;;6.43;3.90;;;;;;;18.04;100.00;95717.44;4995744;28;20038;-70
2023/08/01 05:55:40;;;;;;;6.45;3.80;;;;;;;18.06;100.00;95715.00;5001434;28;20042;-70
2023/08/01 05:58:06;;;;;;;6.68;3.10;;;;;;;18.08;100.00;95709.78;4994940;28;20061;-70
2023/08/01 06:00:31;;;;;;;5.85;3.47;;;;;;;18.10;100.00;95712.13;5000889;28;20128;-71
2023/08/01 06:02:57;;;;;;;8.05;3.85;;;;;;;18.07;100.00;95721.31;5001133;28;20491;-70
2023/08/01 06:05:22;;;;;;;9.48;3.90;;;;;;;18.14;100.00;95729.41;4995712;28;20453;-70
2023/08/01 06:07:47;;;;;;;8.00;3.95;;;;;;;18.12;100.00;95709.69;5000400;28;20057;-72
2023/08/01 06:10:13;;;;;;;5.45;3.42;;;;;;;18.21;100.00;95726.44;4996761;28;20411;-70
2023/08/01 06:12:41;;;;;;;6.00;3.33;;;;;;;18.19;100.00;95728.88;4999971;28;20048;-71
2023/08/01 06:15:06;;;;;;;9.77;3.78;;;;;;;18.16;100.00;95735.28;4996523;28;20034;-71
2023/08/01 06:17:32;;;;;;;7.85;3.58;;;;;;;18.14;100.00;95730.19;5002141;28;20041;-71
2023/08/01 06:19:57;;;;;;;8.68;3.88;;;;;;;18.18;100.00;95734.84;4999635;28;20034;-71
2023/08/01 06:22:23;;;;;;;8.85;3.40;;;;;;;18.10;100.00;95729.53;4996576;28;20113;-72
2023/08/01 06:24:48;;;;;;;11.13;3.72;;;;;;;17.92;100.00;95732.78;5001472;28;20426;-70
2023/08/01 06:27:15;;;;;;;21.55;4.28;;;;;;;17.81;100.00;95712.91;4998227;28;20128;-70
2023/08/01 06:29:40;;;;;;;7.72;3.47;;;;;;;17.90;100.00;95715.06;4999845;28;20048;-72
2023/08/01 06:32:06;;;;;;;8.88;3.95;;;;;;;17.74;100.00;95711.09;4996876;28;20038;-68
2023/08/01 06:34:32;;;;;;;7.60;4.07;;;;;;;17.71;100.00;95725.06;5000257;28;20197;-70
2023/08/01 06:36:57;;;;;;;6.95;3.50;;;;;;;17.46;100.00;95722.94;5001188;28;20066;-70
2023/08/01 06:39:22;;;;;;;7.50;3.75;;;;;;;17.46;100.00;95712.66;4995647;28;20772;-70
2023/08/01 06:41:48;;;;;;;11.77;3.75;;;;;;;17.49;100.00;95719.31;5004082;28;20049;-72
2023/08/01 06:44:13;;;;;;;9.93;5.38;;;;;;;17.45;100.00;95708.34;4999112;28;20636;-70
2023/08/01 06:46:38;;;;;;;9.75;4.40;;;;;;;17.40;100.00;95697.81;5004721;28;20045;-71
2023/08/01 06:49:04;;;;;;;6.90;3.83;;;;;;;17.48;100.00;95696.38;5000618;28;20516;-69
2023/08/01 06:51:29;;;;;;;9.27;3.75;;;;;;;17.57;100.00;95688.25;5002910;28;20045;-70
2023/08/01 06:53:55;;;;;;;6.82;3.50;;;;;;;17.76;100.00;95678.22;5006337;28;20034;-72
2023/08/01 06:56:21;;;;;;;8.82;4.03;;;;;;;17.83;100.00;95680.00;5001524;28;22551;-69
2023/08/01 06:58:47;;;;;;;10.10;3.95;;;;;;;17.81;100.00;95674.13;5004417;28;20499;-70
2023/08/01 07:01:12;;;;;;;8.98;3.55;;;;;;;17.88;100.00;95656.53;4999942;28;20080;-69
2023/08/01 07:03:38;;;;;;;8.80;4.05;;;;;;;17.88;100.00;95660.13;5004976;28;20046;-70
2023/08/01 07:06:03;;;;;;;11.10;4.20;;;;;;;17.89;100.00;95650.56;4999026;28;20069;-68
2023/08/01 07:08:28;;;;;;;10.55;4.22;;;;;;;17.90;100.00;95654.91;5002369;28;20107;-70
2023/08/01 07:10:54;;;;;;;11.27;4.10;;;;;;;18.00;100.00;95666.09;5004979;28;20128;-72
2023/08/01 07:13:19;;;;;;;9.68;4.47;;;;;;;17.95;100.00;95661.88;5000049;28;20049;-69
2023/08/01 07:15:44;;;;;;;9.57;4.55;;;;;;;18.11;100.00;95639.66;4997200;28;20121;-72
2023/08/01 07:18:10;;;;;;;11.70;4.05;;;;;;;17.98;100.00;95629.75;4999696;28;20111;-69
2023/08/01 07:20:35;;;;;;;13.65;3.97;;;;;;;18.02;100.00;95635.97;5003343;28;20508;-70
2023/08/01 07:23:01;;;;;;;12.02;4.22;;;;;;;17.82;100.00;95656.28;5004689;28;20046;-70
2023/08/01 07:25:26;;;;;;;8.15;3.55;;;;;;;17.67;100.00;95658.69;5000544;28;20050;-70
2023/08/01 07:27:51;;;;;;;9.85;3.65;;;;;;;17.58;100.00;95653.78;5005395;28;20546;-70
2023/08/01 07:30:17;;;;;;;8.32;3.85;;;;;;;17.60;100.00;95641.50;4998485;28;20049;-70
2023/08/01 07:32:43;;;;;;;7.95;4.15;;;;;;;17.68;100.00;95638.09;5004259;28;20092;-71
2023/08/01 07:35:09;;;;;;;9.20;4.28;;;;;;;17.66;100.00;95623.13;4997260;28;20095;-70
2023/08/01 07:37:34;;;;;;;11.50;3.53;;;;;;;17.71;100.00;95625.38;5003437;28;20038;-71
2023/08/01 07:39:59;;;;;;;9.25;4.20;;;;;;;17.83;100.00;95632.16;5002983;28;20045;-71
2023/08/01 07:42:25;;;;;;;9.88;4.35;;;;;;;17.81;100.00;95613.22;4998683;28;20049;-71
2023/08/01 07:44:50;;;;;;;10.52;4.00;;;;;;;17.95;100.00;95626.66;5005212;28;20133;-71
2023/08/01 07:47:15;;;;;;;7.10;3.95;;;;;;;18.08;100.00;95634.22;5000042;28;20061;-73
2023/08/01 07:49:41;;;;;;;9.98;4.10;;;;;;;18.17;100.00;95631.56;5004852;28;20081;-71
2023/08/01 07:52:06;;;;;;;11.98;3.95;;;;;;;18.22;100.00;95641.31;4997135;28;20038;-71
2023/08/01 07:54:32;;;;;;;8.85;4.25;;;;;;;18.31;100.00;95633.88;5005044;28;20124;-72
2023/08/01 07:56:57;;;;;;;8.75;3.92;;;;;;;18.47;100.00;95634.97;5028041;28;20446;-71
2023/08/01 07:59:23;;;;;;;7.35;3.50;;;;;;;18.60;100.00;95638.53;5022305;28;20072;-71
2023/08/01 08:01:48;;;;;;;11.07;4.18;;;;;;;18.73;100.00;95641.28;5011285;28;20107;-71
2023/08/01 08:04:14;;;;;;;10.93;4.75;;;;;;;18.77;100.00;95641.94;4998712;28;20038;-72
2023/08/01 08:06:40;;;;;;;9.25;3.88;;;;;;;18.60;100.00;95646.06;5013293;28;20046;-72
2023/08/01 08:09:06;;;;;;;7.75;4.05;;;;;;;18.56;100.00;95650.94;5000868;28;20050;-71
2023/08/01 08:11:31;;;;;;;7.97;4.15;;;;;;;18.61;100.00;95650.38;5003316;28;20046;-71
2023/08/01 08:13:56;;;;;;;8.60;4.40;;;;;;;18.64;100.00;95650.28;5003483;28;20046;-71
2023/08/01 08:16:22;;;;;;;11.20;4.32;;;;;;;18.72;100.00;95657.13;4998615;28;20045;-72
2023/08/01 08:18:47;;;;;;;6.65;3.70;;;;;;;18.84;100.00;95647.28;5004199;28;20613;-71
2023/08/01 08:21:13;;;;;;;8.27;4.43;;;;;;;19.01;100.00;95656.22;4996658;28;20042;-70
2023/08/01 08:23:38;;;;;;;11.05;4.10;;;;;;;19.06;100.00;95649.34;5003126;28;20042;-71
2023/08/01 08:26:04;;;;;;;11.02;4.63;;;;;;;19.06;100.00;95658.44;5001205;28;20167;-69
2023/08/01 08:28:32;;;;;;;7.78;3.67;;;;;;;18.79;100.00;95661.69;5005066;28;20052;-71
2023/08/01 08:30:58;;;;;;;9.35;4.53;;;;;;;18.66;100.00;95666.47;5005189;28;20045;-72
2023/08/01 08:33:24;;;;;;;9.35;4.35;;;;;;;18.66;100.00;95658.16;4998852;28;20038;-71
2023/08/01 08:35:50;;;;;;;7.82;3.30;;;;;;;18.59;100.00;95653.59;5004597;28;20072;-72
2023/08/01 08:38:16;;;;;;;10.90;4.18;;;;;;;18.42;100.00;95657.72;4998611;28;20038;-72
2023/08/01 08:40:52;;;;;;;6.35;3.63;;;;;;;18.52;100.00;95664.91;5003480;28;20050;-72
2023/08/01 08:43:18;;;;;;;10.63;3.58;;;;;;;18.10;100.00;95676.88;5000826;28;20061;-74
2023/08/01 08:45:45;;;;;;;11.07;4.45;;;;;;;17.97;100.00;95681.63;5008722;28;20069;-73
2023/08/01 08:48:17;;;;;;;8.18;3.95;;;;;;;18.15;100.00;95665.25;5006066;28;20046;-72
2023/08/01 08:50:43;;;;;;;10.48;4.40;;;;;;;18.66;100.00;95692.19;5004876;28;20112;-71
2023/08/01 08:53:12;;;;;;;9.63;4.43;;;;;;;18.77;100.00;95688.31;4998555;28;20042;-72
2023/08/01 08:55:39;;;;;;;12.70;4.70;;;;;;;18.70;100.00;95692.09;5004819;28;20406;-71
2023/08/01 08:58:05;;;;;;;8.90;4.38;;;;;;;18.58;100.00;95701.94;4997330;28;20125;-73
2023/08/01 09:00:31;;;;;;;11.27;4.45;;;;;;;18.47;100.00;95710.59;5004619;28;20046;-72
2023/08/01 09:02:57;;;;;;;8.00;4.10;;;;;;;18.29;100.00;95715.91;5002016;28;20535;-72
2023/08/01 09:05:27;;;;;;;9.57;5.07;;;;;;;17.98;100.00;95726.72;4998446;28;20494;-73
2023/08/01 09:07:56;;;;;;;14.93;7.68;;;;;;;17.75;100.00;95731.25;5006475;28;20054;-73
2023/08/01 09:10:22;;;;;;;8.10;4.13;;;;;;;17.40;100.00;95728.25;5002887;28;20100;-71
2023/08/01 09:12:47;;;;;;;7.28;4.15;;;;;;;17.13;100.00;95737.59;5015556;28;20046;-73
2023/08/01 09:15:14;;;;;;;9.68;4.90;;;;;;;17.18;100.00;95728.03;5012734;28;20111;-72
2023/08/01 09:17:52;;;;;;;10.57;4.90;;;;;;;16.88;100.00;95731.91;5011149;28;20423;-72
2023/08/01 09:20:17;;;;;;;8.80;4.40;;;;;;;16.76;100.00;95730.56;5000640;28;20041;-71
2023/08/01 09:22:44;;;;;;;8.20;4.45;;;;;;;16.85;100.00;95718.94;5003701;28;20042;-71
2023/08/01 09:25:10;;;;;;;8.30;4.07;;;;;;;16.86;100.00;95710.22;5000062;28;20046;-72
2023/08/01 09:27:35;;;;;;;12.10;4.95;;;;;;;16.71;100.00;95718.06;5007908;28;20080;-72
2023/08/01 09:30:10;;;;;;;6.68;4.15;;;;;;;16.63;100.00;95711.91;4985771;28;20034;-72
2023/08/01 09:32:35;;;;;;;11.68;4.93;;;;;;;16.61;100.00;95724.59;4985298;28;20510;-71
2023/08/01 09:35:00;;;;;;;12.27;5.03;;;;;;;16.72;100.00;95738.94;4985379;28;20133;-71
2023/08/01 09:37:26;;;;;;;17.10;9.02;;;;;;;16.78;100.00;95733.69;4979602;28;20673;-71
2023/08/01 09:39:55;;;;;;;10.77;5.93;;;;;;;16.78;100.00;95736.44;4985138;28;20042;-72
2023/08/01 09:42:21;;;;;;;9.35;5.07;;;;;;;16.74;100.00;95738.53;4979020;28;20050;-70
2023/08/01 09:44:46;;;;;;;12.52;5.00;;;;;;;16.85;100.00;95741.84;4982760;28;20112;-72
2023/08/01 09:47:12;;;;;;;8.85;4.53;;;;;;;17.13;100.00;95737.59;4979941;28;20049;-71
2023/08/01 09:49:50;;;;;;;8.68;4.80;;;;;;;17.09;100.00;95723.09;4983631;28;20042;-71
2023/08/01 09:52:15;;;;;;;13.57;5.50;;;;;;;16.86;100.00;95726.81;4977987;28;20050;-71
2023/08/01 09:54:40;;;;;;;17.20;5.45;;;;;;;16.65;100.00;95728.06;4983597;28;20043;-72
2023/08/01 09:57:06;;;;;;;10.07;4.68;;;;;;;16.60;100.00;95726.59;4977202;28;20078;-70
2023/08/01 09:59:33;;;;;;;8.45;5.22;;;;;;;16.60;100.00;95717.50;4983629;28;20057;-72
2023/08/01 10:02:01;;;;;;;9.60;5.07;;;;;;;16.45;100.00;95719.81;4979120;28;20066;-72
2023/08/01 10:04:31;;;;;;;8.73;4.40;;;;;;;16.39;100.00;95713.25;4975230;28;20046;-72
2023/08/01 10:07:28;;;;;;;8.05;5.15;;;;;;;16.59;100.00;95708.44;4982040;28;20498;-72
2023/08/01 10:09:58;;;;;;;9.88;5.18;;;;;;;16.57;100.00;95701.81;4982201;28;20138;-71
2023/08/01 10:12:25;;;;;;;9.05;5.20;;;;;;;16.82;100.00;95712.28;4977785;28;20042;-72
2023/08/01 10:14:55;;;;;;;9.00;4.85;;;;;;;16.79;100.00;95718.66;4987357;28;20038;-70
2023/08/01 10:17:25;;;;;;;11.27;5.05;;;;;;;16.92;100.00;95713.25;5001426;28;20046;-72
2023/08/01 10:19:53;;;;;;;11.77;4.90;;;;;;;16.96;100.00;95717.47;5018924;28;20041;-71
2023/08/01 10:22:20;;;;;;;9.57;4.57;;;;;;;17.05;100.00;95721.63;5014320;28;20123;-69
2023/08/01 10:24:47;;;;;;;8.43;4.70;;;;;;;17.15;100.00;95717.81;4986433;28;20058;-70
2023/08/01 10:27:19;;;;;;;7.80;4.45;;;;;;;17.20;100.00;95712.53;4996948;28;20128;-71
2023/08/01 10:29:55;;;;;;;8.80;4.72;;;;;;;17.44;100.00;95704.00;5001148;28;20073;-71
2023/08/01 10:32:29;;;;;;;8.32;4.55;;;;;;;17.62;100.00;95700.00;5009769;28;20636;-71
2023/08/01 10:34:54;;;;;;;9.43;4.35;;;;;;;17.74;100.00;95693.72;5002496;28;20045;-71
2023/08/01 10:37:20;;;;;;;11.45;7.65;;;;;;;17.91;100.00;95698.00;5016606;28;20048;-70
2023/08/01 10:39:56;;;;;;;8.27;3.90;;;;;;;18.08;100.00;95698.72;5019154;28;20045;-72
2023/08/01 10:42:21;;;;;;;9.80;4.75;;;;;;;18.15;100.00;95698.50;5014277;28;20162;-71
2023/08/01 10:44:47;;;;;;;9.75;4.32;;;;;;;18.45;100.00;95698.41;5020997;28;20503;-71
2023/08/01 10:47:12;;;;;;;9.95;3.95;;;;;;;18.54;100.00;95698.53;5015818;28;20041;-72
2023/08/01 10:49:42;;;;;;;11.45;4.50;;;;;;;18.62;100.00;95693.53;5018495;28;20064;-71
2023/08/01 10:52:26;;;;;;;9.13;4.18;;;;;;;18.66;100.00;95697.75;5014716;28;20037;-72
2023/08/01 10:55:05;;;;;;;8.20;3.75;;;;;;;18.85;100.00;95703.53;5020452;28;20045;-70
2023/08/01 10:57:34;;;;;;;6.82;3.88;;;;;;;18.82;100.00;95691.34;5019319;28;20049;-71
2023/08/01 10:59:59;;;;;;;8.97;3.57;;;;;;;18.88;100.00;95686.00;5021455;28;20045;-70
2023/08/01 11:02:27;;;;;;;6.68;3.60;;;;;;;18.56;100.00;95696.06;5015859;28;20060;-71
2023/08/01 11:05:04;;;;;;;7.25;4.00;;;;;;;18.39;100.00;95705.75;5020357;28;20245;-71
2023/08/01 11:07:30;;;;;;;8.00;4.30;;;;;;;18.21;100.00;95701.50;5019354;28;20208;-71
2023/08/01 11:10:22;;;;;;;10.05;4.40;;;;;;;18.29;100.00;95708.41;5020816;28;20080;-71
2023/08/01 11:12:48;;;;;;;7.85;4.32;;;;;;;18.44;100.00;95694.88;5015929;28;20041;-71
2023/08/01 11:15:14;;;;;;;7.10;4.05;;;;;;;18.45;100.00;95699.19;5012194;28;20045;-70
2023/08/01 11:17:41;;;;;;;7.53;4.10;;;;;;;18.87;100.00;95701.06;5000644;28;20038;-71